Forest Dale, Vermont
Current Conditions -  °F | °C
As of 11:15 PM on Wednesday 28 Jan 2015 (Local Time) from K6B0 Reporting Station
Clear Clear  
Wind Chill: -17°   Ceiling: Unl
Heat Index: -17°   Visibility: 10mi
Dew Point: -20°   Wind: 0mph
Humidity: 77%   Direction: NA
Pressure: 30.27"   Gusts: NA
Location:  43.83°N, 73.05°W
Report Text: K6B0 290415Z AUTO 00000KT 10SM CLR M17/M20 A3027 RMK AO2 T11671198
Loading
Personal Weather Stations






























Interactive Weather Map New forecast layout! Learn more

10-Day Weather Forecast

Advertisements
Track Severe Weather on mobile